createdAt,value
2022-08-12T16:25:51.625Z,1017.62
2022-08-12T16:27:38.639Z,1017.53
2022-08-12T16:29:53.125Z,1017.52
2022-08-12T16:32:01.074Z,1017.50
2022-08-12T16:34:40.176Z,1017.52
2022-08-12T16:35:16.481Z,1017.51
2022-08-12T16:37:32.812Z,1017.51
2022-08-12T16:38:28.760Z,1017.53
2022-08-12T16:40:38.230Z,1017.54
2022-08-12T16:42:53.953Z,1017.50
2022-08-12T16:45:02.632Z,1017.50
2022-08-12T16:47:14.658Z,1017.50
2022-08-12T16:49:26.538Z,1017.50
2022-08-12T16:51:41.756Z,1017.41
2022-08-12T16:53:58.635Z,1017.33
2022-08-12T16:56:09.766Z,1017.30
2022-08-12T16:58:28.327Z,1017.30
2022-08-12T17:00:33.924Z,1017.34
2022-08-12T17:02:50.720Z,1017.30
2022-08-12T17:04:58.590Z,1017.30
2022-08-12T17:07:10.157Z,1017.33
2022-08-12T17:09:22.263Z,1017.28
2022-08-12T17:11:34.315Z,1017.27
2022-08-12T17:13:53.356Z,1017.25
2022-08-12T17:16:05.803Z,1017.22
2022-08-12T17:18:42.362Z,1017.21
2022-08-12T17:19:12.039Z,1017.21
2022-08-12T17:21:41.876Z,1017.23
2022-08-12T17:23:48.448Z,1017.24
2022-08-12T17:25:51.621Z,1017.24
2022-08-12T17:30:01.432Z,1017.21
2022-08-12T17:30:27.653Z,1017.18
2022-08-12T17:32:39.036Z,1017.16
2022-08-12T17:34:51.166Z,1017.16
2022-08-12T17:37:05.586Z,1017.14
2022-08-12T17:39:16.899Z,1017.11
2022-08-12T17:41:56.542Z,1017.08
2022-08-12T17:42:32.550Z,1017.11
2022-08-12T17:44:41.998Z,1017.10
2022-08-12T17:46:54.173Z,1017.15
2022-08-12T17:49:06.593Z,1017.15
2022-08-12T17:50:07.142Z,1017.16
2022-08-12T17:52:18.223Z,1017.16
2022-08-12T17:54:30.292Z,1017.17
2022-08-12T17:56:43.184Z,1017.19
2022-08-12T17:58:58.143Z,1017.18
2022-08-12T18:01:11.472Z,1017.22
2022-08-12T18:04:05.207Z,1017.22
2022-08-12T18:04:23.352Z,1017.24
2022-08-12T18:06:33.191Z,1017.31
2022-08-12T18:08:54.935Z,1017.29
2022-08-12T18:10:57.392Z,1017.27
2022-08-12T18:13:10.934Z,1017.27
2022-08-12T18:14:11.925Z,1017.27
2022-08-12T18:16:24.582Z,1017.31
2022-08-12T18:18:37.595Z,1017.34
2022-08-12T18:20:54.239Z,1017.32
2022-08-12T18:23:09.776Z,1017.33
2022-08-12T18:26:15.389Z,1017.32
2022-08-12T18:27:44.685Z,1017.39
2022-08-12T18:29:51.522Z,1017.43
2022-08-12T18:32:17.985Z,1017.45
2022-08-12T18:33:06.452Z,1017.43
2022-08-12T18:35:47.791Z,1017.49
2022-08-12T18:36:24.138Z,1017.46
2022-08-12T18:38:35.228Z,1017.50
2022-08-12T18:40:53.403Z,1017.50
2022-08-12T18:43:06.423Z,1017.49
2022-08-12T18:45:18.468Z,1017.50
2022-08-12T18:47:37.960Z,1017.54
2022-08-12T18:48:31.557Z,1017.55
2022-08-12T18:50:49.400Z,1017.58
2022-08-12T18:52:54.685Z,1017.57
2022-08-12T18:55:08.308Z,1017.59
2022-08-12T18:57:45.454Z,1017.62
2022-08-12T18:58:20.453Z,1017.59
2022-08-12T19:00:34.453Z,1017.63
2022-08-12T19:02:47.877Z,1017.64
2022-08-12T19:05:08.138Z,1017.65
2022-08-12T19:07:16.672Z,1017.68
2022-08-12T19:09:39.239Z,1017.70
2022-08-12T19:10:29.764Z,1017.71
2022-08-12T19:12:42.739Z,1017.68
2022-08-12T19:13:44.221Z,1017.67
2022-08-12T19:15:54.542Z,1017.71
2022-08-12T19:18:07.994Z,1017.73
2022-08-12T19:20:20.164Z,1017.67
2022-08-12T19:22:33.157Z,1017.70
2022-08-12T19:24:49.718Z,1017.67
2022-08-12T19:27:50.554Z,1017.68
2022-08-12T19:30:06.569Z,1017.65
2022-08-12T19:30:52.755Z,1017.63
2022-08-12T19:33:04.687Z,1017.70
2022-08-12T19:36:08.150Z,1017.69
2022-08-12T19:36:24.379Z,1017.68
2022-08-12T19:38:33.337Z,1017.62
2022-08-12T19:40:46.293Z,1017.65
2022-08-12T19:43:01.033Z,1017.70
2022-08-12T19:45:12.431Z,1017.69
2022-08-12T19:47:24.217Z,1017.71
2022-08-12T19:49:36.319Z,1017.67
2022-08-12T19:51:49.316Z,1017.66
2022-08-12T19:54:01.435Z,1017.67
2022-08-12T19:56:13.523Z,1017.70
2022-08-12T19:58:25.696Z,1017.69
2022-08-12T20:00:39.211Z,1017.67
2022-08-12T20:02:52.262Z,1017.68
2022-08-12T20:06:05.842Z,1017.75
2022-08-12T20:06:13.634Z,1017.74
2022-08-12T20:08:32.913Z,1017.83
2022-08-12T20:10:37.249Z,1017.80
2022-08-12T20:13:17.519Z,1017.83
2022-08-12T20:15:20.655Z,1017.84
2022-08-12T20:17:11.755Z,1017.83
2022-08-12T20:19:23.809Z,1017.83
2022-08-12T20:21:40.280Z,1017.87
2022-08-12T20:24:01.013Z,1017.87
2022-08-12T20:26:09.421Z,1017.81
2022-08-12T20:28:38.902Z,1017.85
2022-08-12T20:30:53.424Z,1017.88
2022-08-12T20:33:03.014Z,1017.85
2022-08-12T20:35:19.777Z,1017.88
2022-08-12T20:38:06.571Z,1017.85
2022-08-12T20:38:28.162Z,1017.83
2022-08-12T20:40:39.311Z,1017.89
2022-08-12T20:42:51.320Z,1017.89
2022-08-12T20:45:03.423Z,1017.89
2022-08-12T20:47:19.580Z,1017.92
2022-08-12T20:49:31.891Z,1017.89
2022-08-12T20:51:46.428Z,1017.89
2022-08-12T20:52:40.908Z,1017.90
2022-08-12T20:54:51.720Z,1017.93
2022-08-12T20:57:07.596Z,1017.92
2022-08-12T20:59:20.376Z,1017.92
2022-08-12T21:01:47.122Z,1017.92
2022-08-12T21:03:52.336Z,1017.95
2022-08-12T21:04:43.980Z,1017.86
2022-08-12T21:06:54.088Z,1017.91
2022-08-12T21:09:06.148Z,1017.93
2022-08-12T21:11:18.220Z,1018.02
2022-08-12T21:13:38.950Z,1017.98
2022-08-12T21:15:55.018Z,1017.92
2022-08-12T21:18:08.733Z,1017.99
2022-08-12T21:18:55.428Z,1018.00
2022-08-12T21:21:23.667Z,1018.01
2022-08-12T21:22:08.509Z,1018.01
2022-08-12T21:23:08.503Z,1018.03
2022-08-12T21:25:19.562Z,1018.04
2022-08-12T21:27:57.693Z,1018.05
2022-08-12T21:28:33.380Z,1018.04
2022-08-12T21:31:10.750Z,1018.06
2022-08-12T21:32:39.490Z,1018.03
2022-08-12T21:32:59.416Z,1018.01
2022-08-12T21:34:55.756Z,1017.99
2022-08-12T21:37:26.482Z,1017.97
2022-08-12T21:39:21.981Z,1017.99
2022-08-12T21:41:32.989Z,1017.95
2022-08-12T21:43:48.802Z,1017.99
2022-08-12T21:46:00.550Z,1018.01
2022-08-12T21:48:09.240Z,1017.95
2022-08-12T21:50:29.079Z,1017.94
2022-08-12T21:52:48.796Z,1017.95
2022-08-12T21:54:45.467Z,1017.94
2022-08-12T21:56:57.547Z,1017.93
2022-08-12T21:59:14.419Z,1017.91
2022-08-12T22:01:22.921Z,1017.90
2022-08-12T22:04:04.009Z,1017.91
2022-08-12T22:05:45.893Z,1017.95
2022-08-12T22:07:58.367Z,1017.89
2022-08-12T22:10:12.365Z,1017.96
2022-08-12T22:12:22.153Z,1017.94
2022-08-12T22:14:34.190Z,1017.98
2022-08-12T22:16:47.122Z,1017.99
2022-08-12T22:18:58.333Z,1017.99
2022-08-12T22:21:11.315Z,1018.01
2022-08-12T22:23:28.416Z,1018.09
2022-08-12T22:24:26.997Z,1018.04
2022-08-12T22:26:37.112Z,1018.05
2022-08-12T22:28:46.689Z,1018.11
2022-08-12T22:30:58.735Z,1018.15
2022-08-12T22:33:15.715Z,1018.18
2022-08-12T22:35:29.002Z,1018.16
2022-08-12T22:37:35.986Z,1018.18
2022-08-12T22:39:49.501Z,1018.16
2022-08-12T22:42:02.119Z,1018.18
2022-08-12T22:44:14.238Z,1018.13
2022-08-12T22:46:26.680Z,1018.13
2022-08-12T22:48:38.380Z,1018.09
2022-08-12T22:49:53.075Z,1018.09
2022-08-12T22:50:39.392Z,1018.11
2022-08-12T22:52:50.442Z,1018.10
2022-08-12T22:55:05.484Z,1018.11
2022-08-12T22:57:14.601Z,1018.11
2022-08-12T22:59:26.737Z,1018.10
2022-08-12T23:02:01.129Z,1018.05
2022-08-12T23:03:53.807Z,1018.08
2022-08-12T23:06:10.257Z,1018.08
2022-08-12T23:08:17.844Z,1018.06
2022-08-12T23:10:27.058Z,1018.06
2022-08-12T23:12:40.934Z,1018.08
2022-08-12T23:14:51.227Z,1018.08
2022-08-12T23:17:03.307Z,1018.09
2022-08-12T23:19:17.921Z,1018.09
2022-08-12T23:22:03.325Z,1018.09
2022-08-12T23:22:36.221Z,1018.09
2022-08-12T23:24:53.753Z,1018.11
2022-08-12T23:26:54.409Z,1018.09
2022-08-12T23:29:25.776Z,1018.12
2022-08-12T23:30:19.073Z,1018.07
2022-08-12T23:31:08.452Z,1018.13
2022-08-12T23:33:21.465Z,1018.09
2022-08-12T23:34:20.558Z,1018.13
2022-08-12T23:36:39.769Z,1018.11
2022-08-12T23:38:43.769Z,1018.12
2022-08-12T23:40:57.329Z,1018.14
2022-08-12T23:43:12.394Z,1018.13
2022-08-12T23:45:31.509Z,1018.16
2022-08-12T23:47:38.406Z,1018.11
2022-08-12T23:49:58.545Z,1018.12
2022-08-12T23:50:50.100Z,1018.11
2022-08-12T23:53:01.151Z,1018.09
2022-08-12T23:55:24.015Z,1018.09
2022-08-12T23:56:14.243Z,1018.10
2022-08-12T23:58:26.311Z,1018.11
